Portada
METAR-TAF:

METAR-TAF

Aeropuertos :

Aeropuerto de Uagadugú

Uagadugú, Burkina Faso

latitud: 12-21N, longitud: 001-31W, altitud: 316 m

Observación

El informe se hizo hace 43 minutos, a las 15:00 UTC
Viento 6 kt del este-noreste
Temperatura 34°C
Humedad 25%
Presión 1011 hPa
Visibilidad: 6000 m

METAR: DFFD 201500Z 06006KT 6000 NSC 34/11 Q1011 NOSIG

Hora: 15:43 (15:43 UTC)

Pronóstico

El informe se hizo hace 4 horas y 43 minutos, a las 11:00 UTC
Pronóstico válido del 20 a las 12 UTC al 21 a las 18 UTC
Viento 8 kt del norte-noreste
Visibilidad: 8000 m
Temporalmente
del 20 a las 17 UTC al 20 a las 20 UTC
Visibilidad: 4000 m
Polvo extendido
Evolucionando progresivamente
del 21 a las 04 UTC al 21 a las 06 UTC
Visibilidad: 4000 m
Polvo extendido

TAF: DFFD 201100Z 2012/2118 02008KT 8000 NSC TEMPO 2017/2020 4000 DU BECMG 2104/2106 4000 DU

Observaciones y pronósticos meteorológicos de más de 4000 aeropuertos (mensajes METAR y TAF).

Los puntos amarillos y rojos representan las estaciones disponibles.

Ponga el ratón en el punto deseado para ver el nombre de la estación.

Haga clic para ver las observaciones y los pronósticos meteorológicos.

Para cambiar el mapa : haga clic en los botones verdes con una cruz de color negro para hacer un zoom, en el botón verde con un guión para alejar o en las flechas verdes para mapas adyacentes.


METAR-TAF: